Time;durP1;ratioP1;P1;durP2;ratioP2;P2;SDS_P1;SDS_P2;PMS_P1;PMS_P2;Temp;Humidity;BMP_temperature;BMP_pressure;BME280_temperature;BME280_humidity;BME280_pressure;Samples;Min_cycle;Max_cycle;Signal;HPM_P1;HPM_P2
2021/12/08 00:00:19;;;;;;;7.53;0.90;;;;;;;12.51;71.85;100026.34;5070022;28;20119;-69
2021/12/08 00:02:49;;;;;;;3.45;0.50;;;;;;;12.51;71.77;100026.34;5067158;28;20457;-69
2021/12/08 00:05:19;;;;;;;8.15;1.50;;;;;;;12.50;71.80;100031.63;5069569;28;20036;-69
2021/12/08 00:07:47;;;;;;;10.60;1.55;;;;;;;12.47;72.18;100029.00;5068895;28;20072;-69
2021/12/08 00:10:29;;;;;;;6.63;0.98;;;;;;;12.46;72.20;100030.78;5068294;28;20051;-69
2021/12/08 00:13:03;;;;;;;12.00;1.42;;;;;;;12.49;72.45;100028.09;5068041;28;20044;-68
2021/12/08 00:15:33;;;;;;;5.63;1.23;;;;;;;12.52;72.57;100027.22;5068751;28;20392;-69
2021/12/08 00:18:04;;;;;;;11.60;1.83;;;;;;;12.53;72.69;100024.56;5068693;28;20044;-69
2021/12/08 00:20:33;;;;;;;6.55;1.10;;;;;;;12.53;72.63;100029.88;5069284;28;20575;-68
2021/12/08 00:23:01;;;;;;;12.95;2.28;;;;;;;12.54;72.65;100025.44;5067403;28;20131;-69
2021/12/08 00:25:29;;;;;;;11.68;2.15;;;;;;;12.57;72.48;100031.59;5051138;28;20040;-69
2021/12/08 00:27:58;;;;;;;7.82;1.55;;;;;;;12.59;72.27;100032.50;5067651;28;20044;-68
2021/12/08 00:30:27;;;;;;;13.45;1.90;;;;;;;12.59;72.18;100029.84;5067933;28;20040;-69
2021/12/08 00:32:56;;;;;;;11.95;2.15;;;;;;;12.56;72.12;100034.25;5075254;28;20049;-69
2021/12/08 00:35:27;;;;;;;11.68;2.05;;;;;;;12.52;71.93;100037.81;5067438;28;20054;-68
2021/12/08 00:37:54;;;;;;;9.98;1.77;;;;;;;12.38;72.06;100025.50;5069483;28;20044;-69
2021/12/08 00:40:23;;;;;;;16.25;2.97;;;;;;;12.42;72.34;100022.84;5067222;28;20046;-69
2021/12/08 00:42:51;;;;;;;12.68;2.72;;;;;;;12.46;72.27;100029.91;5067341;28;20044;-69
2021/12/08 00:45:21;;;;;;;8.90;2.58;;;;;;;12.51;72.11;100036.03;5065822;28;20133;-69
2021/12/08 00:47:49;;;;;;;11.50;2.28;;;;;;;12.47;71.81;100035.16;5068998;28;20079;-69
2021/12/08 00:50:20;;;;;;;9.63;2.90;;;;;;;12.44;71.26;100040.47;5068750;28;20036;-69
2021/12/08 00:52:51;;;;;;;7.68;1.70;;;;;;;12.38;70.51;100041.38;5067360;28;20392;-69
2021/12/08 00:55:20;;;;;;;7.85;2.13;;;;;;;12.31;70.28;100044.06;5066840;28;20459;-69
2021/12/08 00:57:48;;;;;;;9.13;1.40;;;;;;;12.32;70.28;100048.47;5066827;28;20036;-69
2021/12/08 01:00:19;;;;;;;10.90;2.10;;;;;;;12.33;70.34;100055.53;5068289;28;20052;-69
2021/12/08 01:02:47;;;;;;;8.95;1.60;;;;;;;12.29;70.25;100056.41;5049065;28;20049;-69
2021/12/08 01:05:17;;;;;;;7.63;1.33;;;;;;;12.23;70.50;100040.53;5067359;28;20036;-69
2021/12/08 01:07:46;;;;;;;11.02;1.70;;;;;;;12.15;70.55;100047.63;5066068;28;20491;-69
2021/12/08 01:10:24;;;;;;;13.10;1.50;;;;;;;12.17;69.67;100041.44;5067748;28;20101;-69
2021/12/08 01:12:54;;;;;;;7.65;2.10;;;;;;;12.31;69.09;100038.75;5067671;28;20048;-69
2021/12/08 01:15:24;;;;;;;10.48;1.40;;;;;;;12.35;67.32;100032.56;5067308;28;20037;-69
2021/12/08 01:17:51;;;;;;;8.52;1.15;;;;;;;12.37;66.67;100029.03;5070268;28;20400;-69
2021/12/08 01:20:19;;;;;;;11.45;1.65;;;;;;;12.40;65.80;100032.56;5083129;28;20076;-69
2021/12/08 01:22:47;;;;;;;4.43;1.35;;;;;;;12.46;65.91;100027.25;5068747;28;20044;-69
2021/12/08 01:25:16;;;;;;;8.00;2.08;;;;;;;12.49;65.79;100020.16;5066643;28;20033;-69
2021/12/08 01:27:45;;;;;;;7.30;1.73;;;;;;;12.51;65.37;100028.97;5068678;28;20098;-69
2021/12/08 01:30:13;;;;;;;13.45;1.55;;;;;;;12.51;65.60;100030.75;5069042;28;20181;-70
2021/12/08 01:32:42;;;;;;;5.40;0.75;;;;;;;12.40;66.32;100030.81;5050462;28;20044;-69
2021/12/08 01:35:12;;;;;;;8.70;1.55;;;;;;;12.32;66.37;100041.41;5068010;28;20428;-69
2021/12/08 01:37:41;;;;;;;18.67;1.45;;;;;;;12.37;65.85;100044.03;5069101;28;20044;-69
2021/12/08 01:40:11;;;;;;;4.93;0.98;;;;;;;12.39;65.01;100039.63;5063138;28;20133;-69
2021/12/08 01:42:45;;;;;;;6.32;1.58;;;;;;;12.38;63.73;100043.16;5067133;28;20040;-69
2021/12/08 01:47:59;;;;;;;8.07;1.40;;;;;;;12.25;65.50;100050.25;5061095;28;19920;-69
2021/12/08 01:50:28;;;;;;;5.88;1.30;;;;;;;12.21;66.19;100047.59;5068735;28;20377;-69
2021/12/08 01:52:55;;;;;;;7.43;1.52;;;;;;;12.09;66.83;100042.34;5067158;28;20041;-69
2021/12/08 01:55:23;;;;;;;8.60;1.23;;;;;;;12.04;66.86;100054.69;5070012;28;20130;-69
2021/12/08 01:57:53;;;;;;;7.82;0.98;;;;;;;11.97;66.97;100054.72;5072676;28;20070;-70
2021/12/08 02:00:25;;;;;;;5.03;1.05;;;;;;;11.95;67.04;100051.19;5054540;28;20037;-69
2021/12/08 02:02:59;;;;;;;6.65;1.30;;;;;;;11.93;66.93;100052.09;5074110;28;20519;-69
2021/12/08 02:05:28;;;;;;;4.68;0.70;;;;;;;11.86;67.27;100050.34;5084935;28;20740;-69
2021/12/08 02:07:56;;;;;;;7.13;1.10;;;;;;;11.82;67.19;100049.44;5072488;28;20496;-69
2021/12/08 02:10:24;;;;;;;6.15;1.10;;;;;;;11.75;67.46;100055.59;5072480;28;20404;-69
2021/12/08 02:12:54;;;;;;;7.15;1.60;;;;;;;11.65;67.69;100048.53;5070397;28;20106;-69
2021/12/08 02:15:22;;;;;;;6.97;1.10;;;;;;;11.65;67.26;100048.53;5069779;28;20127;-69
2021/12/08 02:17:53;;;;;;;5.10;1.15;;;;;;;11.72;66.44;100052.94;5070804;28;20535;-69
2021/12/08 02:20:23;;;;;;;8.00;1.10;;;;;;;11.79;65.46;100054.75;5072404;28;20045;-69
2021/12/08 02:22:52;;;;;;;7.00;1.45;;;;;;;11.79;65.33;100056.50;5071462;28;20051;-69
2021/12/08 02:25:22;;;;;;;5.68;1.00;;;;;;;11.82;64.47;100060.00;5072002;28;20045;-69
2021/12/08 02:27:51;;;;;;;4.75;0.80;;;;;;;11.85;63.98;100059.13;5086144;28;20036;-69
2021/12/08 02:30:27;;;;;;;5.88;0.98;;;;;;;11.83;64.04;100072.34;5070116;28;20098;-69
2021/12/08 02:49:24;;;;;;;4.82;1.00;;;;;;;12.13;61.19;100076.75;5043497;28;20037;-69
2021/12/08 02:51:53;;;;;;;4.47;1.08;;;;;;;12.19;60.78;100076.72;5051693;28;20053;-69
2021/12/08 02:54:23;;;;;;;7.80;1.55;;;;;;;12.21;60.77;100077.59;5031733;28;20037;-69
2021/12/08 02:56:55;;;;;;;8.52;1.13;;;;;;;12.20;61.26;100090.84;5052929;28;20079;-70
2021/12/08 02:59:24;;;;;;;11.00;4.63;;;;;;;12.08;61.69;100081.13;5066447;28;20044;-69
2021/12/08 03:01:52;;;;;;;11.18;2.65;;;;;;;12.05;61.75;100082.91;5067091;28;20095;-69
2021/12/08 03:04:19;;;;;;;10.52;2.20;;;;;;;12.09;62.07;100092.59;5052833;28;20125;-69
2021/12/08 03:06:47;;;;;;;7.93;2.83;;;;;;;12.09;62.11;100085.56;5071195;28;20056;-69
2021/12/08 03:09:15;;;;;;;8.75;1.92;;;;;;;12.12;62.03;100089.97;5071215;28;20029;-70
2021/12/08 03:11:45;;;;;;;9.73;2.72;;;;;;;12.17;62.22;100090.84;5071792;28;20119;-69
2021/12/08 03:14:15;;;;;;;8.60;2.45;;;;;;;12.19;61.96;100089.06;5049380;28;20045;-69
2021/12/08 03:16:47;;;;;;;8.05;1.73;;;;;;;12.20;61.86;100098.78;5053055;28;20053;-70
2021/12/08 03:19:16;;;;;;;7.65;1.25;;;;;;;12.21;61.77;100093.47;5049767;28;20099;-70
2021/12/08 03:21:44;;;;;;;3.88;0.80;;;;;;;12.22;61.94;100097.88;5049009;28;20045;-70
2021/12/08 03:24:21;;;;;;;3.85;1.00;;;;;;;12.23;61.87;100089.06;5049598;28;20070;-69
2021/12/08 03:26:57;;;;;;;6.95;1.42;;;;;;;12.27;62.23;100103.19;5049951;28;20470;-70
2021/12/08 03:29:33;;;;;;;7.15;1.17;;;;;;;12.24;62.18;100104.06;5049237;28;20041;-70
2021/12/08 03:32:06;;;;;;;;;;;;;;;12.19;62.12;100123.47;5050790;28;20048;-69
2021/12/08 03:34:38;;;;;;;10.15;1.50;;;;;;;12.23;61.96;100122.56;5050693;28;19921;-69
2021/12/08 03:37:07;;;;;;;9.05;1.70;;;;;;;12.22;61.90;100131.38;5049489;28;20048;-69
2021/12/08 03:39:37;;;;;;;6.63;1.27;;;;;;;12.23;61.84;100122.56;5048729;28;20036;-69
2021/12/08 03:42:07;;;;;;;9.02;1.55;;;;;;;12.22;62.33;100136.69;5050150;28;20126;-69
2021/12/08 03:44:36;;;;;;;8.82;1.80;;;;;;;12.21;62.57;100148.13;5050487;28;20044;-69
2021/12/08 03:47:13;;;;;;;11.15;1.98;;;;;;;12.21;62.53;100154.31;5049923;28;20063;-69
2021/12/08 03:49:42;;;;;;;14.07;2.60;;;;;;;12.20;62.58;100154.34;5050040;28;20045;-69
2021/12/08 03:52:10;;;;;;;6.35;1.23;;;;;;;12.16;62.64;100158.75;5070370;28;20048;-70
2021/12/08 03:54:37;;;;;;;5.97;1.15;;;;;;;12.17;62.36;100162.28;5069314;28;20052;-70
2021/12/08 03:57:08;;;;;;;11.52;2.00;;;;;;;12.22;62.50;100166.66;5068934;28;20040;-70
2021/12/08 03:59:36;;;;;;;12.57;2.00;;;;;;;12.20;62.38;100175.50;5085670;28;20460;-69
2021/12/08 04:02:05;;;;;;;12.80;1.80;;;;;;;12.22;62.55;100182.53;5069470;28;20102;-69
2021/12/08 04:04:41;;;;;;;9.45;2.28;;;;;;;12.22;62.53;100192.25;5070236;28;20049;-70
2021/12/08 04:07:08;;;;;;;11.77;1.80;;;;;;;12.22;62.65;100192.25;5068379;28;20455;-70
2021/12/08 04:09:40;;;;;;;8.20;1.20;;;;;;;12.20;62.89;100191.38;5069521;28;20048;-70
2021/12/08 04:12:11;;;;;;;5.00;1.20;;;;;;;12.23;62.60;100204.59;5068648;28;20108;-69
2021/12/08 04:14:42;;;;;;;5.45;1.77;;;;;;;12.19;62.84;100211.66;5032015;28;20072;-69
2021/12/08 04:17:14;;;;;;;10.13;1.55;;;;;;;12.18;62.94;100212.53;5061071;28;20040;-69
2021/12/08 04:19:44;;;;;;;5.38;0.90;;;;;;;12.18;62.50;100209.00;5047961;28;20049;-69
2021/12/08 04:22:15;;;;;;;4.97;1.55;;;;;;;12.19;61.89;100213.44;5047962;28;20046;-69
2021/12/08 04:24:46;;;;;;;6.82;0.63;;;;;;;12.23;61.07;100225.78;5041635;28;20045;-71
2021/12/08 04:27:19;;;;;;;5.07;0.80;;;;;;;12.25;60.94;100224.91;5056095;28;20036;-71
2021/12/08 04:29:48;;;;;;;3.73;1.13;;;;;;;12.27;60.00;100225.75;5073895;28;20059;-71
2021/12/08 04:32:19;;;;;;;5.95;0.85;;;;;;;12.34;60.02;100229.28;5054659;28;20041;-70
2021/12/08 04:34:50;;;;;;;7.60;0.73;;;;;;;12.38;59.64;100233.72;5043897;28;20045;-70
2021/12/08 04:37:26;;;;;;;7.88;1.27;;;;;;;12.41;59.71;100228.41;5050153;28;20033;-70
2021/12/08 04:40:07;;;;;;;4.47;0.88;;;;;;;12.47;59.59;100236.34;5054811;28;20445;-70
2021/12/08 04:42:50;;;;;;;7.75;1.13;;;;;;;12.48;59.39;100231.94;5044705;28;20041;-70
2021/12/08 04:45:25;;;;;;;3.78;0.80;;;;;;;12.45;59.54;100253.13;5038735;28;20071;-69
2021/12/08 04:48:10;;;;;;;5.78;1.20;;;;;;;12.44;59.28;100267.25;5048647;28;20044;-69
2021/12/08 04:51:03;;;;;;;6.65;0.80;;;;;;;12.43;59.47;100286.66;5049171;28;20040;-69
2021/12/08 04:53:37;;;;;;;8.73;1.45;;;;;;;12.45;59.90;100290.19;5047280;28;20036;-69
2021/12/08 05:02:19;;;;;;;4.80;1.35;;;;;;;12.41;60.41;100307.81;5010411;28;20496;-70
2021/12/08 05:05:03;;;;;;;5.75;1.10;;;;;;;12.50;61.02;100323.72;5034601;28;20124;-69
2021/12/08 05:07:46;;;;;;;5.13;0.85;;;;;;;12.55;61.36;100335.19;5048762;28;20481;-69
2021/12/08 05:10:17;;;;;;;2.25;0.50;;;;;;;12.61;62.00;100339.59;5047194;28;20118;-70
2021/12/08 05:12:47;;;;;;;6.35;1.65;;;;;;;12.69;61.99;100344.03;5049022;28;20048;-69
2021/12/08 05:15:21;;;;;;;14.05;2.45;;;;;;;12.75;62.24;100348.44;5048939;28;20118;-70
2021/12/08 05:17:54;;;;;;;9.32;3.78;;;;;;;12.76;62.75;100351.09;5046819;28;20438;-69
2021/12/08 05:20:29;;;;;;;8.63;1.52;;;;;;;12.72;63.37;100341.38;5048943;28;20060;-69
2021/12/08 05:23:02;;;;;;;7.90;2.78;;;;;;;12.70;63.83;100361.69;5047200;28;20037;-70
2021/12/08 05:25:33;;;;;;;9.73;2.00;;;;;;;12.67;64.01;100351.06;5048716;28;20507;-69
2021/12/08 05:28:06;;;;;;;8.05;1.65;;;;;;;12.61;64.32;100351.06;5048595;28;20516;-69
2021/12/08 05:30:39;;;;;;;5.20;1.45;;;;;;;12.56;64.96;100350.19;5046106;28;20222;-69
2021/12/08 05:33:08;;;;;;;6.43;1.50;;;;;;;12.57;65.32;100349.31;5049226;28;20045;-69
2021/12/08 05:35:36;;;;;;;6.72;1.75;;;;;;;12.55;65.51;100356.38;5034797;28;20041;-70
2021/12/08 05:38:05;;;;;;;7.95;1.60;;;;;;;12.60;65.70;100349.28;5047935;28;20499;-69
2021/12/08 05:40:37;;;;;;;8.75;2.25;;;;;;;12.65;65.75;100358.16;5040062;28;20033;-69
2021/12/08 05:43:07;;;;;;;7.90;1.80;;;;;;;12.68;65.86;100357.25;5030351;28;20112;-69
2021/12/08 05:45:38;;;;;;;5.65;1.45;;;;;;;12.73;66.03;100361.66;5047994;28;20492;-69
2021/12/08 05:48:07;;;;;;;9.18;3.00;;;;;;;12.82;65.86;100355.50;5064527;28;20087;-70
2021/12/08 05:50:39;;;;;;;5.88;1.70;;;;;;;12.81;65.90;100366.09;5029609;28;20037;-69
2021/12/08 05:53:06;;;;;;;10.40;2.15;;;;;;;12.85;65.89;100359.91;5048384;28;20098;-70
2021/12/08 05:55:36;;;;;;;14.13;2.15;;;;;;;12.87;65.96;100366.09;5048575;28;20049;-70
2021/12/08 05:58:06;;;;;;;7.38;1.10;;;;;;;12.86;65.88;100372.28;5046184;28;20048;-69
2021/12/08 06:00:38;;;;;;;9.45;1.48;;;;;;;12.93;65.83;100360.81;5046313;28;22994;-70
2021/12/08 06:03:06;;;;;;;7.22;1.42;;;;;;;12.94;65.65;100370.50;5048195;28;20041;-70
2021/12/08 06:05:34;;;;;;;14.38;1.88;;;;;;;12.95;65.48;100357.25;5046810;28;20179;-70
2021/12/08 06:08:02;;;;;;;11.55;1.67;;;;;;;12.96;65.50;100364.31;5048287;28;20128;-69
2021/12/08 06:10:34;;;;;;;6.65;1.10;;;;;;;12.98;65.48;100373.16;5048057;28;20540;-69
2021/12/08 06:13:03;;;;;;;12.18;2.28;;;;;;;13.00;65.35;100363.44;5048023;28;20045;-70
2021/12/08 06:15:31;;;;;;;12.27;2.05;;;;;;;12.97;65.41;100371.41;5047981;28;20041;-69
2021/12/08 06:18:00;;;;;;;10.43;1.30;;;;;;;13.03;64.47;100375.81;5032649;28;20497;-69
2021/12/08 06:20:28;;;;;;;13.68;2.53;;;;;;;13.12;64.06;100381.09;5029778;28;20120;-69
2021/12/08 06:22:57;;;;;;;9.88;2.22;;;;;;;13.11;64.22;100393.47;5041608;28;20045;-69
2021/12/08 06:25:27;;;;;;;8.00;1.42;;;;;;;13.14;63.89;100395.25;5042037;28;20041;-70
2021/12/08 06:27:55;;;;;;;12.27;1.40;;;;;;;13.16;63.90;100404.09;5045974;28;20052;-70
2021/12/08 06:30:27;;;;;;;7.72;1.08;;;;;;;13.20;63.38;100405.84;5044361;28;20409;-69
2021/12/08 06:32:55;;;;;;;10.80;1.73;;;;;;;13.27;63.42;100406.72;5046383;28;20048;-70
2021/12/08 06:35:29;;;;;;;8.07;1.05;;;;;;;13.39;63.10;100420.00;5047327;28;20123;-70
2021/12/08 06:37:58;;;;;;;5.97;1.23;;;;;;;13.57;62.86;100441.16;5062803;28;20037;-70
2021/12/08 06:40:31;;;;;;;8.18;1.60;;;;;;;13.66;62.79;100424.31;5047688;28;20091;-70
2021/12/08 06:43:01;;;;;;;6.95;1.27;;;;;;;13.68;62.66;100438.47;5050726;28;20503;-70
2021/12/08 06:45:31;;;;;;;8.40;2.10;;;;;;;13.69;62.22;100437.59;5053621;28;20467;-70
2021/12/08 06:48:01;;;;;;;9.85;1.45;;;;;;;13.67;62.29;100442.00;5046842;28;20051;-70
2021/12/08 06:50:36;;;;;;;6.90;1.52;;;;;;;13.71;62.37;100443.78;5050315;28;20499;-70
2021/12/08 06:53:04;;;;;;;7.65;2.08;;;;;;;13.80;62.60;100447.28;5051194;28;20053;-70
2021/12/08 06:55:36;;;;;;;6.15;1.27;;;;;;;14.06;61.74;100460.47;5046479;28;20508;-70
2021/12/08 06:58:07;;;;;;;8.10;1.25;;;;;;;14.22;60.88;100461.31;5033165;28;20072;-70
2021/12/08 07:00:48;;;;;;;4.25;0.88;;;;;;;14.36;60.91;100459.47;5051174;28;20075;-70
2021/12/08 07:03:32;;;;;;;6.43;1.00;;;;;;;14.46;60.88;100468.31;5050589;28;20041;-70
2021/12/08 07:06:10;;;;;;;6.88;1.63;;;;;;;14.51;60.24;100475.34;5051039;28;20079;-71
2021/12/08 07:08:43;;;;;;;10.82;2.10;;;;;;;14.58;60.35;100479.75;5050490;28;20132;-70
2021/12/08 07:11:12;;;;;;;5.15;0.82;;;;;;;14.66;60.18;100479.72;5050316;28;20491;-71
2021/12/08 07:13:40;;;;;;;7.57;1.05;;;;;;;14.99;60.28;100484.81;5044472;28;20124;-71
2021/12/08 07:16:12;;;;;;;5.28;1.55;;;;;;;15.23;60.53;100494.38;5045692;28;20132;-70
2021/12/08 07:18:52;;;;;;;8.75;1.38;;;;;;;15.22;59.86;100507.72;5045848;28;20041;-70
2021/12/08 07:21:23;;;;;;;12.27;1.63;;;;;;;14.85;61.98;100523.00;5050968;28;20448;-70
2021/12/08 07:23:54;;;;;;;16.30;2.42;;;;;;;14.12;66.62;100563.97;5063006;28;20414;-73
2021/12/08 07:26:26;;;;;;;12.95;1.45;;;;;;;13.46;70.90;100563.13;5069618;28;20120;-72
2021/12/08 07:28:55;;;;;;;10.07;2.80;;;;;;;13.06;72.96;100585.16;5034359;28;20115;-72
2021/12/08 07:31:28;;;;;;;9.60;1.45;;;;;;;12.92;74.60;100595.72;5060045;28;20500;-72
2021/12/08 07:34:03;;;;;;;2.58;0.68;;;;;;;12.90;75.34;100593.94;5066474;28;20484;-72
2021/12/08 07:36:33;;;;;;;4.78;1.02;;;;;;;12.75;76.19;100584.16;5050683;28;20094;-72
2021/12/08 07:39:06;;;;;;;7.95;1.67;;;;;;;12.73;76.44;100593.88;5063873;28;20498;-72
2021/12/08 07:41:36;;;;;;;8.02;1.50;;;;;;;12.74;76.62;100585.91;5034229;28;20056;-71
2021/12/08 07:44:10;;;;;;;11.52;2.35;;;;;;;12.78;77.25;100602.72;5074395;28;20082;-71
2021/12/08 07:46:44;;;;;;;16.00;5.43;;;;;;;12.86;77.31;100606.28;5053540;28;20041;-72
2021/12/08 07:49:16;;;;;;;13.25;4.35;;;;;;;12.83;77.50;100613.31;5040720;28;20041;-76
2021/12/08 07:51:50;;;;;;;19.90;8.52;;;;;;;12.77;78.29;100632.72;5066588;28;20060;-73
2021/12/08 07:54:20;;;;;;;13.50;3.95;;;;;;;12.59;80.24;100637.94;5056935;28;20404;-74
2021/12/08 07:56:52;;;;;;;23.70;7.07;;;;;;;12.52;81.13;100634.38;5078790;28;20132;-75
2021/12/08 07:59:22;;;;;;;30.17;11.82;;;;;;;12.43;82.01;100636.97;5065916;28;20053;-75
2021/12/08 08:01:53;;;;;;;18.30;6.78;;;;;;;12.43;82.55;100639.59;5067194;28;20455;-73
2021/12/08 08:04:24;;;;;;;25.13;8.38;;;;;;;12.48;82.99;100648.47;5060605;28;20514;-73
2021/12/08 08:07:00;;;;;;;20.02;7.47;;;;;;;12.50;83.31;100643.19;5062855;28;20045;-71
2021/12/08 08:09:31;;;;;;;26.88;13.35;;;;;;;12.58;83.48;100642.34;5064247;28;20048;-71
2021/12/08 08:12:02;;;;;;;23.73;15.15;;;;;;;12.59;83.84;100648.53;5058548;28;20048;-71
2021/12/08 08:14:36;;;;;;;22.20;14.10;;;;;;;12.58;84.18;100639.72;5058523;28;20072;-71
2021/12/08 08:17:05;;;;;;;16.90;5.40;;;;;;;12.58;84.42;100649.41;5065671;28;20102;-70
2021/12/08 08:19:39;;;;;;;20.80;13.95;;;;;;;12.62;84.62;100646.78;5048714;28;20052;-70
2021/12/08 08:22:13;;;;;;;14.55;6.75;;;;;;;12.66;84.69;100642.41;5054558;28;20458;-69
2021/12/08 08:24:41;;;;;;;20.58;7.82;;;;;;;12.67;84.84;100641.50;5049667;28;20121;-69
2021/12/08 08:27:10;;;;;;;17.85;9.75;;;;;;;12.99;85.66;100642.56;5057237;28;20040;-69
2021/12/08 08:29:38;;;;;;;12.32;4.15;;;;;;;13.41;86.67;100647.09;5047554;28;20052;-68
2021/12/08 08:32:08;;;;;;;14.13;3.15;;;;;;;13.78;87.51;100655.13;5050889;28;20380;-68
2021/12/08 08:34:40;;;;;;;7.55;3.67;;;;;;;14.14;88.22;100654.22;5058510;28;20132;-68
2021/12/08 08:37:12;;;;;;;20.23;13.13;;;;;;;14.55;88.82;100657.75;5040903;28;20082;-68
2021/12/08 08:39:49;;;;;;;7.70;2.58;;;;;;;14.92;89.25;100661.19;5060771;28;20457;-68
2021/12/08 08:42:20;;;;;;;6.45;1.55;;;;;;;15.36;89.20;100660.09;5071984;28;20073;-69
2021/12/08 08:44:51;;;;;;;5.50;1.60;;;;;;;15.52;88.93;100662.69;5057920;28;20070;-68
2021/12/08 08:47:24;;;;;;;5.57;1.77;;;;;;;15.41;88.83;100658.28;5052477;28;20044;-67
2021/12/08 08:49:53;;;;;;;6.15;1.55;;;;;;;15.18;88.61;100649.53;5056836;28;20094;-66
2021/12/08 08:52:27;;;;;;;9.20;2.35;;;;;;;15.08;88.85;100652.25;5059624;28;20544;-67
2021/12/08 08:54:58;;;;;;;9.43;2.33;;;;;;;15.00;89.20;100653.16;5050915;28;20037;-66
2021/12/08 08:57:29;;;;;;;11.68;3.30;;;;;;;14.94;89.11;100656.75;5056438;28;20037;-67
2021/12/08 09:00:00;;;;;;;6.75;2.53;;;;;;;14.87;88.86;100660.31;5065803;28;20041;-66
2021/12/08 09:02:38;;;;;;;13.35;3.75;;;;;;;14.77;88.73;100663.88;5064149;28;20042;-67
2021/12/08 09:05:11;;;;;;;9.63;2.47;;;;;;;14.58;88.82;100670.13;5063803;28;20168;-68
2021/12/08 09:07:44;;;;;;;11.00;1.80;;;;;;;14.49;89.00;100678.13;5065520;28;20033;-67
2021/12/08 09:10:15;;;;;;;10.52;2.00;;;;;;;14.42;88.86;100681.69;5056902;28;20045;-67
2021/12/08 09:12:46;;;;;;;10.82;2.00;;;;;;;14.42;88.77;100692.31;5035369;28;20493;-67
2021/12/08 09:15:18;;;;;;;7.40;1.90;;;;;;;14.33;88.25;100691.38;5042305;28;20060;-67
2021/12/08 09:17:51;;;;;;;6.55;1.13;;;;;;;14.14;87.88;100702.91;5062288;28;20094;-68
2021/12/08 09:20:27;;;;;;;5.95;1.40;;;;;;;13.99;87.86;100713.50;5027835;28;20071;-70
2021/12/08 09:23:00;;;;;;;9.73;1.95;;;;;;;13.77;87.47;100722.34;5035742;28;20055;-69
2021/12/08 09:25:31;;;;;;;11.48;1.88;;;;;;;13.63;87.26;100742.66;5035531;28;20048;-71
2021/12/08 09:28:04;;;;;;;7.97;1.63;;;;;;;13.36;87.44;100741.66;5029352;28;20052;-72
2021/12/08 09:30:36;;;;;;;7.85;2.38;;;;;;;13.24;87.70;100736.31;5029175;28;20033;-71
2021/12/08 09:33:09;;;;;;;5.38;1.67;;;;;;;13.22;87.71;100743.38;5026762;28;20053;-72
2021/12/08 09:35:41;;;;;;;5.43;1.00;;;;;;;13.27;87.74;100735.44;5032457;28;20048;-70
2021/12/08 09:38:14;;;;;;;7.10;1.08;;;;;;;13.29;87.51;100737.22;5043042;28;20048;-70
2021/12/08 09:40:49;;;;;;;5.55;1.05;;;;;;;13.24;87.18;100743.38;5068534;28;20040;-71
2021/12/08 09:43:23;;;;;;;7.18;1.20;;;;;;;13.18;87.14;100752.19;5056369;28;20112;-71
2021/12/08 09:45:54;;;;;;;21.27;4.90;;;;;;;13.09;87.07;100737.09;5063367;28;20041;-71
2021/12/08 09:48:26;;;;;;;18.38;5.38;;;;;;;13.11;87.21;100739.75;5039957;28;20458;-71
2021/12/08 09:50:56;;;;;;;8.73;2.83;;;;;;;13.13;87.32;100751.28;5028567;28;20037;-70
2021/12/08 09:53:26;;;;;;;8.45;2.05;;;;;;;13.15;87.18;100742.47;5034211;28;20029;-70
2021/12/08 09:55:54;;;;;;;8.15;1.20;;;;;;;13.08;87.12;100739.72;5061863;28;20034;-70
2021/12/08 09:58:22;;;;;;;7.93;1.33;;;;;;;13.18;86.78;100743.38;5048086;28;20068;-69
2021/12/08 10:00:54;;;;;;;10.18;2.35;;;;;;;13.22;85.93;100735.41;5063509;28;20064;-69
2021/12/08 10:03:22;;;;;;;9.48;1.50;;;;;;;13.29;85.67;100745.19;5053504;28;20053;-69
2021/12/08 10:05:50;;;;;;;6.22;1.70;;;;;;;13.35;85.20;100755.81;5034281;28;20083;-69
2021/12/08 10:08:18;;;;;;;8.93;3.35;;;;;;;13.37;85.11;100742.56;5029315;28;20037;-69
2021/12/08 10:10:49;;;;;;;9.30;2.50;;;;;;;13.31;84.84;100748.72;5033385;28;20048;-69
2021/12/08 10:13:18;;;;;;;8.07;2.00;;;;;;;13.35;84.81;100742.53;5045386;28;20055;-69
2021/12/08 10:15:46;;;;;;;10.75;1.60;;;;;;;13.39;84.68;100738.16;5047912;28;20041;-70
2021/12/08 10:18:14;;;;;;;7.82;1.60;;;;;;;13.34;84.72;100738.13;5038716;28;20037;-69
2021/12/08 10:20:44;;;;;;;13.93;2.30;;;;;;;13.27;84.73;100731.03;5067391;28;20131;-69
2021/12/08 10:23:20;;;;;;;10.65;1.75;;;;;;;13.35;84.88;100724.00;5062885;28;20068;-68
2021/12/08 10:25:56;;;;;;;11.07;2.15;;;;;;;13.51;85.06;100719.63;5039100;28;20103;-68
2021/12/08 10:28:29;;;;;;;9.32;1.83;;;;;;;13.80;85.91;100723.22;5046917;28;20045;-68
2021/12/08 10:30:59;;;;;;;14.20;2.42;;;;;;;14.21;87.50;100720.59;5060665;28;20137;-68
2021/12/08 10:34:00;;;;;;;9.02;1.95;;;;;;;14.42;88.38;100734.81;5052774;28;20064;-67
2021/12/08 10:36:44;;;;;;;6.20;1.40;;;;;;;14.56;88.76;100738.34;5065168;28;20158;-66
2021/12/08 10:39:16;;;;;;;6.95;1.40;;;;;;;14.53;88.60;100754.28;5060029;28;20131;-66
2021/12/08 10:42:02;;;;;;;13.68;1.65;;;;;;;14.47;87.37;100741.00;5062789;28;20044;-66
2021/12/08 10:44:39;;;;;;;4.95;1.02;;;;;;;14.45;87.55;100729.47;5050941;28;20057;-65
2021/12/08 10:47:08;;;;;;;4.07;0.80;;;;;;;14.32;86.41;100748.03;5056935;28;20040;-66
2021/12/08 10:55:19;;;;;;;4.15;1.30;;;;;;;14.16;82.66;100753.34;5063946;28;20443;-66
2021/12/08 10:57:53;;;;;;;7.70;1.02;;;;;;;14.33;83.19;100755.13;5062028;28;20057;-65
2021/12/08 11:00:25;;;;;;;6.53;0.68;;;;;;;14.53;82.87;100739.22;5058150;28;20134;-66
2021/12/08 11:02:55;;;;;;;4.43;0.82;;;;;;;14.67;81.93;100729.47;5030220;28;20048;-66
2021/12/08 11:05:50;;;;;;;2.60;0.70;;;;;;;14.71;79.49;100739.19;5050859;28;20526;-68
2021/12/08 11:08:20;;;;;;;;;;;;;;;14.75;80.10;100738.31;5045721;28;20246;-65
2021/12/08 11:10:52;;;;;;;4.60;0.77;;;;;;;14.84;78.71;100741.81;5051823;28;19936;-66
2021/12/08 11:13:24;;;;;;;3.72;0.73;;;;;;;14.89;78.55;100750.69;5077781;28;20123;-66
2021/12/08 11:16:07;;;;;;;4.65;0.77;;;;;;;14.98;78.67;100753.31;5068105;28;20123;-66
2021/12/08 11:18:39;;;;;;;4.85;0.50;;;;;;;15.09;78.35;100747.09;5058754;28;20037;-66
2021/12/08 11:21:15;;;;;;;1.92;0.75;;;;;;;15.15;76.83;100762.13;5059179;28;20037;-66
2021/12/08 11:23:45;;;;;;;5.35;0.93;;;;;;;15.19;76.59;100758.56;5062578;28;20047;-66
2021/12/08 11:26:24;;;;;;;4.45;0.90;;;;;;;15.34;77.63;100755.84;5050165;28;20045;-66
2021/12/08 11:28:59;;;;;;;5.55;0.90;;;;;;;15.40;74.73;100752.28;5045608;28;20037;-67
2021/12/08 11:31:33;;;;;;;4.20;0.70;;;;;;;15.54;76.72;100758.47;5036367;28;20749;-66
2021/12/08 11:34:04;;;;;;;6.55;1.08;;;;;;;15.62;75.74;100759.28;5049721;28;20072;-67
2021/12/08 11:36:35;;;;;;;6.28;1.33;;;;;;;15.69;76.58;100763.69;5032313;28;20457;-66
2021/12/08 11:39:14;;;;;;;6.55;0.88;;;;;;;15.74;74.59;100755.69;5043194;28;20042;-66
2021/12/08 11:41:44;;;;;;;2.05;0.85;;;;;;;15.79;74.05;100761.88;5038330;28;20049;-67
2021/12/08 11:44:16;;;;;;;6.63;0.95;;;;;;;15.76;73.12;100765.44;5031236;28;20098;-66
2021/12/08 11:46:48;;;;;;;7.20;1.40;;;;;;;15.80;73.75;100768.97;5048242;28;20077;-67
2021/12/08 11:49:16;;;;;;;10.07;1.90;;;;;;;15.79;72.13;100773.41;5030317;28;20446;-66
2021/12/08 11:52:02;;;;;;;4.60;1.20;;;;;;;15.86;70.95;100783.13;5044157;28;20037;-66
2021/12/08 11:54:36;;;;;;;9.15;1.35;;;;;;;15.88;71.94;100784.00;5046869;28;20041;-67
2021/12/08 11:57:11;;;;;;;;;;;;;;;15.80;70.44;100788.50;5046850;28;20091;-67
2021/12/08 11:59:47;;;;;;;;;;;;;;;15.74;71.77;100784.97;5036077;28;20018;-67
2021/12/08 12:02:17;;;;;;;7.50;1.52;;;;;;;15.72;71.37;100790.31;5046604;28;19921;-69
2021/12/08 12:04:45;;;;;;;6.97;1.42;;;;;;;15.81;71.41;100789.38;5059092;28;20049;-66
2021/12/08 12:07:14;;;;;;;7.45;1.30;;;;;;;15.84;70.79;100787.56;5044826;28;20041;-66
2021/12/08 12:09:43;;;;;;;4.57;1.13;;;;;;;15.81;70.42;100786.72;5049756;28;20048;-66
2021/12/08 12:12:12;;;;;;;5.53;1.08;;;;;;;15.70;69.15;100789.41;5046287;28;20646;-66
2021/12/08 12:14:40;;;;;;;5.65;1.55;;;;;;;15.60;69.22;100785.03;5030097;28;20037;-66